Decoded Metar for KRXE (REXBURG in ID, USA) (IATA:RXE) | Meteo·Mobile Aviation Weather
aviador You're here:

KRXE Decoded Metar

REXBURG in ID, USA
Report Time2018-11-21 17:53:00
UTC Time2018-11-21 18:08:15
Flight Rules vfr VFR
Wind050° at 03 kt
W.Decomp.*RWY 35: 2.1 kt HW 2.1 kt RCW
W.Rank050° ranks 5
Current wind is below 050° avg. (4.8)
Visibility9999 m
Phenomena:N/A
Clouds:N/A
Expected CloudBase > 2,800 ft AGL from Temp-Dew spread
CeilingNone
Temp01°C (ISA -4)
Dew Point-6°C (60% RH)
AAT-2.8°C
QNH1023 hPa
Density Alt4,058 ft
Elevation4,856 ft
Report Wrong Elevation
Raw Report
KRXE 211753Z AUTO 05003KT 10SM CLR 01/M06 A3021 RMK AO2 SLP261
T00111061 10011 21100 50000=

Extra information for KRXE:More info

Metar Taf Metar & Taf Last 4 Metars F.Rules Stats Wind Profile Meteogram Temp Stats Airport Information Weather charts Add Link Nearby VenuesMetar ALERT Operation Metar Decoded Social comments

AIRNAV info for KRXE